createdAt,value
2018-08-17T00:02:25.915Z,9.13
2018-08-17T00:06:28.146Z,8.40
2018-08-17T00:10:30.325Z,7.27
2018-08-17T00:14:32.499Z,6.90
2018-08-17T00:18:34.678Z,7.97
2018-08-17T00:22:36.902Z,8.23
2018-08-17T00:26:39.130Z,7.00
2018-08-17T00:30:41.296Z,8.47
2018-08-17T00:34:43.471Z,7.20
2018-08-17T00:38:45.639Z,7.60
2018-08-17T00:42:47.822Z,6.83
2018-08-17T00:46:50.019Z,7.87
2018-08-17T00:50:52.218Z,8.93
2018-08-17T00:54:54.376Z,7.60
2018-08-17T00:58:56.554Z,8.83
2018-08-17T01:02:58.827Z,7.63
2018-08-17T01:07:01.441Z,7.63
2018-08-17T01:11:03.642Z,7.17
2018-08-17T01:15:06.007Z,7.23
2018-08-17T01:19:08.204Z,6.97
2018-08-17T01:23:10.440Z,7.17
2018-08-17T01:27:12.657Z,8.53
2018-08-17T01:31:14.895Z,8.83
2018-08-17T01:35:17.391Z,10.77
2018-08-17T01:39:19.553Z,10.50
2018-08-17T01:43:21.719Z,10.00
2018-08-17T01:47:23.874Z,10.90
2018-08-17T01:51:26.519Z,10.13
2018-08-17T01:55:28.748Z,9.33
2018-08-17T01:59:30.937Z,10.17
2018-08-17T02:03:33.730Z,9.77
2018-08-17T02:07:36.486Z,10.47
2018-08-17T02:11:39.126Z,9.17
2018-08-17T02:15:41.287Z,8.93
2018-08-17T02:19:43.447Z,8.47
2018-08-17T02:23:45.604Z,9.10
2018-08-17T02:27:47.777Z,8.97
2018-08-17T02:31:49.937Z,10.07
2018-08-17T02:35:52.104Z,7.77
2018-08-17T02:39:54.846Z,9.20
2018-08-17T02:43:57.097Z,9.43
2018-08-17T02:48:00.105Z,8.03
2018-08-17T02:52:02.307Z,8.10
2018-08-17T02:56:04.504Z,6.77
2018-08-17T03:00:06.763Z,8.60
2018-08-17T03:04:09.008Z,8.53
2018-08-17T03:08:11.199Z,7.63
2018-08-17T03:12:13.394Z,8.87
2018-08-17T03:16:15.708Z,9.03
2018-08-17T03:20:17.880Z,7.80
2018-08-17T03:24:20.638Z,8.27
2018-08-17T03:28:23.009Z,7.57
2018-08-17T03:32:25.475Z,7.63
2018-08-17T03:36:27.701Z,8.17
2018-08-17T03:40:29.877Z,8.93
2018-08-17T03:44:32.067Z,8.40
2018-08-17T03:48:34.835Z,8.60
2018-08-17T03:52:37.138Z,7.37
2018-08-17T03:56:39.298Z,8.60
2018-08-17T04:00:41.591Z,8.23
2018-08-17T04:04:43.809Z,7.70
2018-08-17T04:08:46.115Z,9.17
2018-08-17T04:12:48.439Z,7.43
2018-08-17T04:16:50.919Z,7.17
2018-08-17T04:20:53.176Z,7.60
2018-08-17T04:24:55.375Z,7.60
2018-08-17T04:28:58.148Z,8.70
2018-08-17T04:33:00.475Z,9.03
2018-08-17T04:37:03.247Z,8.40
2018-08-17T04:41:05.786Z,7.83
2018-08-17T04:45:08.831Z,8.80
2018-08-17T04:49:11.090Z,8.80
2018-08-17T04:53:13.333Z,9.63
2018-08-17T04:57:15.503Z,9.50
2018-08-17T05:01:17.672Z,9.20
2018-08-17T05:05:19.882Z,8.53
2018-08-17T05:09:22.331Z,10.40
2018-08-17T05:13:24.534Z,10.43
2018-08-17T05:17:26.684Z,8.50
2018-08-17T05:21:29.325Z,8.33
2018-08-17T05:25:32.310Z,8.60
2018-08-17T05:29:34.476Z,8.10
2018-08-17T05:33:36.656Z,8.30
2018-08-17T05:37:38.902Z,8.07
2018-08-17T05:41:41.111Z,8.47
2018-08-17T05:45:43.366Z,8.87
2018-08-17T05:49:46.576Z,9.70
2018-08-17T05:53:49.296Z,8.57
2018-08-17T05:57:51.929Z,9.37
2018-08-17T06:01:54.226Z,8.13
2018-08-17T06:05:56.436Z,7.70
2018-08-17T06:09:58.688Z,7.10
2018-08-17T06:14:00.872Z,7.63
2018-08-17T06:18:03.111Z,8.27
2018-08-17T06:22:05.410Z,7.87
2018-08-17T06:26:07.644Z,8.67
2018-08-17T06:30:13.829Z,9.93
2018-08-17T06:34:16.909Z,9.40
2018-08-17T06:38:19.177Z,10.17
2018-08-17T06:42:21.336Z,11.43
2018-08-17T06:46:23.504Z,11.07
2018-08-17T06:50:25.681Z,10.07
2018-08-17T06:54:27.854Z,10.60
2018-08-17T06:58:30.015Z,10.93
2018-08-17T07:02:32.207Z,11.27
2018-08-17T07:06:34.374Z,11.53
2018-08-17T07:10:37.827Z,10.97
2018-08-17T07:14:39.979Z,12.20
2018-08-17T07:18:42.121Z,11.57
2018-08-17T07:22:45.003Z,12.00
2018-08-17T07:26:47.858Z,11.03
2018-08-17T07:30:50.634Z,12.57
2018-08-17T07:34:52.818Z,10.93
2018-08-17T07:38:55.034Z,11.90
2018-08-17T07:42:57.271Z,11.77
2018-08-17T07:46:59.499Z,13.97
2018-08-17T07:51:01.680Z,11.03
2018-08-17T07:55:03.902Z,11.07
2018-08-17T07:59:06.238Z,12.47
2018-08-17T08:03:08.420Z,11.03
2018-08-17T08:07:10.626Z,11.97
2018-08-17T08:11:12.909Z,11.73
2018-08-17T08:15:15.051Z,11.43
2018-08-17T08:19:19.244Z,11.13
2018-08-17T08:23:26.670Z,11.43
2018-08-17T08:27:30.492Z,11.50
2018-08-17T08:31:32.711Z,11.73
2018-08-17T08:35:34.903Z,11.60
2018-08-17T08:39:37.175Z,10.70
2018-08-17T08:43:39.341Z,12.13
2018-08-17T08:47:41.527Z,11.83
2018-08-17T08:51:43.792Z,11.77
2018-08-17T08:55:45.959Z,11.60
2018-08-17T08:59:48.187Z,9.97
2018-08-17T09:03:50.444Z,11.07
2018-08-17T09:07:52.835Z,11.40
2018-08-17T09:11:55.041Z,11.23
2018-08-17T09:15:57.283Z,10.93
2018-08-17T09:19:59.503Z,13.53
2018-08-17T09:24:01.683Z,11.70
2018-08-17T09:28:03.958Z,10.80
2018-08-17T09:32:06.231Z,10.53
2018-08-17T09:36:08.573Z,11.03
2018-08-17T09:40:11.157Z,12.20
2018-08-17T09:44:14.077Z,11.77
2018-08-17T09:48:16.454Z,11.47
2018-08-17T09:52:18.659Z,11.83
2018-08-17T09:56:20.807Z,13.23
2018-08-17T10:00:28.680Z,12.83
2018-08-17T10:04:36.484Z,11.70
2018-08-17T10:08:45.055Z,10.90
2018-08-17T10:12:49.754Z,11.40
2018-08-17T10:16:51.908Z,12.00
2018-08-17T10:20:54.157Z,10.77
2018-08-17T10:25:01.076Z,11.70
2018-08-17T10:29:04.117Z,11.87
2018-08-17T10:33:06.924Z,10.23
2018-08-17T10:37:09.946Z,13.40
2018-08-17T10:41:12.160Z,10.70
2018-08-17T10:45:14.306Z,12.17
2018-08-17T10:49:16.558Z,11.97
2018-08-17T10:53:19.207Z,10.33
2018-08-17T10:57:21.392Z,11.83
2018-08-17T11:01:23.889Z,11.83
2018-08-17T11:05:26.207Z,11.47
2018-08-17T11:09:29.337Z,12.33
2018-08-17T11:13:31.762Z,11.23
2018-08-17T11:17:33.917Z,13.67
2018-08-17T11:21:36.094Z,11.93
2018-08-17T11:25:38.338Z,12.13
2018-08-17T11:29:40.584Z,11.97
2018-08-17T11:33:42.788Z,10.17
2018-08-17T11:37:45.063Z,9.60
2018-08-17T11:41:47.262Z,10.90
2018-08-17T11:45:49.579Z,10.97
2018-08-17T11:49:51.858Z,11.07
2018-08-17T11:53:54.117Z,10.77
2018-08-17T11:57:56.252Z,10.17
2018-08-17T12:01:58.485Z,9.57
2018-08-17T12:06:00.639Z,8.67
2018-08-17T12:10:03.829Z,8.77
2018-08-17T12:14:06.399Z,8.00
2018-08-17T12:18:10.004Z,9.63
2018-08-17T12:22:13.576Z,7.23
2018-08-17T12:26:16.621Z,7.10
2018-08-17T12:30:19.293Z,7.60
2018-08-17T12:34:21.632Z,6.20
2018-08-17T12:38:24.180Z,6.77
2018-08-17T12:42:26.520Z,6.73
2018-08-17T12:46:29.370Z,6.30
2018-08-17T12:50:31.882Z,6.80
2018-08-17T12:54:34.867Z,7.87
2018-08-17T12:58:37.059Z,7.57
2018-08-17T13:02:39.872Z,5.87
2018-08-17T13:06:42.223Z,6.50
2018-08-17T13:10:45.657Z,5.50
2018-08-17T13:14:48.480Z,6.20
2018-08-17T13:18:50.675Z,7.00
2018-08-17T13:22:53.305Z,6.20
2018-08-17T13:26:55.508Z,4.57
2018-08-17T13:30:58.219Z,6.07
2018-08-17T13:35:01.298Z,6.53
2018-08-17T13:39:06.770Z,5.93
2018-08-17T13:43:09.021Z,6.70
2018-08-17T13:47:11.347Z,6.80
2018-08-17T13:51:13.628Z,6.97
2018-08-17T13:55:15.875Z,6.80
2018-08-17T13:59:17.991Z,6.87
2018-08-17T14:03:20.166Z,6.53
2018-08-17T14:07:22.401Z,7.23
2018-08-17T14:11:24.649Z,6.30
2018-08-17T14:15:26.855Z,6.70
2018-08-17T14:19:29.092Z,7.03
2018-08-17T14:23:31.268Z,6.67
2018-08-17T14:27:33.511Z,6.87
2018-08-17T14:31:35.687Z,5.67
2018-08-17T14:35:39.010Z,6.27
2018-08-17T14:39:41.812Z,7.57
2018-08-17T14:43:44.102Z,6.80
2018-08-17T14:47:46.309Z,6.03
2018-08-17T14:51:49.867Z,6.47
2018-08-17T14:55:52.268Z,6.80
2018-08-17T14:59:54.473Z,7.40
2018-08-17T15:03:56.925Z,7.33
2018-08-17T15:08:02.180Z,7.03
2018-08-17T15:12:04.428Z,6.90
2018-08-17T15:16:06.614Z,7.70
2018-08-17T15:20:09.884Z,6.80
2018-08-17T15:24:12.092Z,6.03
2018-08-17T15:28:14.703Z,5.30
2018-08-17T15:32:17.204Z,5.30
2018-08-17T15:36:19.407Z,5.67
2018-08-17T15:40:21.575Z,5.57
2018-08-17T15:44:25.671Z,5.87
2018-08-17T15:48:28.943Z,4.50
2018-08-17T15:52:31.338Z,5.50
2018-08-17T15:56:33.523Z,7.57
2018-08-17T16:00:35.820Z,6.00
2018-08-17T16:04:37.993Z,5.90
2018-08-17T16:08:40.206Z,6.23
2018-08-17T16:12:42.622Z,6.70
2018-08-17T16:16:44.853Z,7.03
2018-08-17T16:20:47.155Z,7.97
2018-08-17T16:24:50.629Z,8.13
2018-08-17T16:28:52.902Z,7.67
2018-08-17T16:32:55.183Z,8.00
2018-08-17T16:36:57.447Z,9.07
2018-08-17T16:40:59.659Z,9.40
2018-08-17T16:45:02.105Z,8.63
2018-08-17T16:49:04.492Z,8.37
2018-08-17T16:53:06.759Z,10.07
2018-08-17T16:57:08.947Z,9.80
2018-08-17T17:01:11.215Z,10.47
2018-08-17T17:05:13.519Z,9.70
2018-08-17T17:09:15.682Z,9.03
2018-08-17T17:13:17.896Z,9.40
2018-08-17T17:17:20.084Z,9.77
2018-08-17T17:21:22.332Z,9.93
2018-08-17T17:25:24.502Z,18.17
2018-08-17T17:29:30.999Z,26.80
2018-08-17T17:33:33.184Z,17.40
2018-08-17T17:37:35.377Z,11.53
2018-08-17T17:41:37.766Z,11.43
2018-08-17T17:45:40.283Z,14.27
2018-08-17T17:49:42.507Z,12.03
2018-08-17T17:53:46.258Z,11.83
2018-08-17T17:57:49.859Z,10.50
2018-08-17T18:01:52.092Z,10.77
2018-08-17T18:05:54.739Z,10.13
2018-08-17T18:09:56.945Z,10.53
2018-08-17T18:13:59.130Z,9.63
2018-08-17T18:18:01.396Z,8.67
2018-08-17T18:22:03.707Z,9.20
2018-08-17T18:26:09.417Z,9.30
2018-08-17T18:30:11.691Z,9.03
2018-08-17T18:34:14.391Z,9.47
2018-08-17T18:38:16.606Z,9.50
2018-08-17T18:42:18.868Z,10.17
2018-08-17T18:46:21.202Z,13.13
2018-08-17T18:50:23.396Z,13.27
2018-08-17T18:54:25.710Z,14.53
2018-08-17T18:58:27.946Z,17.55
2018-08-17T19:02:30.162Z,17.43
2018-08-17T19:06:32.407Z,17.70
2018-08-17T19:10:34.710Z,16.80
2018-08-17T19:14:42.647Z,16.47
2018-08-17T19:18:44.852Z,18.90
2018-08-17T19:22:47.140Z,18.50
2018-08-17T19:26:49.351Z,18.03
2018-08-17T19:30:51.743Z,17.63
2018-08-17T19:34:54.283Z,18.27
2018-08-17T19:38:56.656Z,19.47
2018-08-17T19:42:58.845Z,22.20
2018-08-17T19:47:01.069Z,20.63
2018-08-17T19:51:07.917Z,20.20
2018-08-17T19:55:10.136Z,21.30
2018-08-17T19:59:12.287Z,22.20
2018-08-17T20:03:14.479Z,23.77
2018-08-17T20:07:16.736Z,21.70
2018-08-17T20:11:19.017Z,22.33
2018-08-17T20:15:21.271Z,22.40
2018-08-17T20:19:32.564Z,22.53
2018-08-17T20:23:34.792Z,21.80
2018-08-17T20:27:37.009Z,20.77
2018-08-17T20:31:42.504Z,21.93
2018-08-17T20:35:44.695Z,23.87
2018-08-17T20:39:47.168Z,23.00
2018-08-17T20:43:49.355Z,22.73
2018-08-17T20:47:51.650Z,21.63
2018-08-17T20:51:57.847Z,22.40
2018-08-17T20:56:00.179Z,22.43
2018-08-17T21:00:02.529Z,24.37
2018-08-17T21:04:04.773Z,24.23
2018-08-17T21:08:07.160Z,26.57
2018-08-17T21:12:09.342Z,25.27
2018-08-17T21:16:11.528Z,25.33
2018-08-17T21:20:14.084Z,26.70
2018-08-17T21:24:16.304Z,23.67
2018-08-17T21:28:18.488Z,25.40
2018-08-17T21:32:21.335Z,26.13
2018-08-17T21:36:23.555Z,23.47
2018-08-17T21:40:28.797Z,24.33
2018-08-17T21:44:31.019Z,21.30
2018-08-17T21:48:36.119Z,22.20
2018-08-17T21:52:38.324Z,21.00
2018-08-17T21:56:40.719Z,23.00
2018-08-17T22:00:42.956Z,23.73
2018-08-17T22:04:46.114Z,22.13
2018-08-17T22:08:48.322Z,21.47
2018-08-17T22:12:50.494Z,22.77
2018-08-17T22:16:52.674Z,23.20
2018-08-17T22:20:54.913Z,23.77
2018-08-17T22:24:58.135Z,22.60
2018-08-17T22:29:00.329Z,24.30
2018-08-17T22:33:12.199Z,22.90
2018-08-17T22:37:14.571Z,20.67
2018-08-17T22:41:16.754Z,23.57
2018-08-17T22:45:18.930Z,23.87
2018-08-17T22:49:21.106Z,21.90
2018-08-17T22:53:23.285Z,22.83
2018-08-17T22:57:26.263Z,22.67
2018-08-17T23:01:28.572Z,23.93
2018-08-17T23:05:34.335Z,25.37
2018-08-17T23:09:36.503Z,24.63
2018-08-17T23:13:38.662Z,24.00
2018-08-17T23:17:43.691Z,23.27
2018-08-17T23:21:45.911Z,23.47
2018-08-17T23:25:48.103Z,23.07
2018-08-17T23:29:50.262Z,25.23
2018-08-17T23:33:52.570Z,24.97
2018-08-17T23:37:54.818Z,25.67
2018-08-17T23:41:57.051Z,22.57
2018-08-17T23:45:59.219Z,23.13
2018-08-17T23:50:01.387Z,23.50
2018-08-17T23:54:03.568Z,24.37
2018-08-17T23:58:05.776Z,22.57
